Station: Millendon (Swan Valley)  

  Atmospheric Gas Attenuation - ITU Rec 676-11   ----------------- dB/100km -----------------
Date Time Temp RH % AH g/m3 Dew Point Wind Direction Speed kph Gust kph Barometer mB Rainfall Since 9am 24GHz 47GHz 76GHz 122GHz 134GHz 241GHz
08/05 09:20 18.7 49 7.84 8 13 17 1029.9 0 17.7 24.0 35.3 92.3 84.4 289.7
08/05 09:10 18.2 52 8.08 8.2 15 20 1029.9 0 18.3 24.5 36.4 95.2 87.8 301.9
08/05 09:00 18.1 53 8.19 8.4 9 19 1030.2 0 18.5 24.7 36.9 96.5 89.3 307.1
08/05 08:50 17.6 54 8.1 8.2 9 15 1030.2 0 18.3 24.7 36.8 96.2 88.8 305.1
08/05 08:40 17.2 54 7.91 8 7 9 1030.3 0 17.9 24.5 36.2 94.7 86.9 298.3
08/05 08:30 17 56 8.1 8.2 7 17 1030.3 0 18.4 24.8 37.0 96.9 89.5 307.4
08/05 08:20 16.6 57 8.05 8 7 11 1030.2 0 18.3 24.9 37.0 96.9 89.3 306.7
08/05 08:10 16.2 56 7.72 7.6 6 7 1030.2 0 17.6 24.5 36.0 94.0 85.6 293.7
08/05 08:00 15.9 59 7.99 7.9 6 15 1030.1 0 18.2 25.0 37.1 97.1 89.3 306.7
08/05 07:50 15.6 59 7.85 7.6 7 7 1030.1 0 17.9 24.8 36.7 96.0 87.9 301.6
08/05 07:40 15.1 60 7.74 7.4 6 6 1030 0 17.7 24.8 36.5 95.5 87.0 298.6
08/05 07:30 14.9 60 7.65 7.2 6 11 1029.9 0 17.5 24.7 36.3 94.8 86.1 295.3
08/05 07:20 14.8 60 7.6 7.1 7 13 1029.7 0 17.4 24.6 36.1 94.4 85.5 293.4
08/05 07:10 14.6 60 7.51 6.9 7 9 1029.6 0 17.2 24.5 35.8 93.7 84.6 290.1
08/05 07:00 14.7 60 7.55 7 6 11 1029.5 0 17.3 24.6 35.9 93.9 85.0 291.5
08/05 06:50 14.8 58 7.35 6.8 4 6 1029.4 0 16.9 24.2 35.1 91.8 82.4 282.2
08/05 06:40 14.8 58 7.35 6.8 7 9 1029.3 0 16.9 24.2 35.1 91.8 82.4 282.2
08/05 06:30 15 58 7.44 6.8 6 13 1029.3 0 17.1 24.3 35.4 92.4 83.3 285.5
08/05 06:20 15.1 58 7.48 6.9 6 11 1029.4 0 17.1 24.4 35.5 92.7 83.7 286.9
08/05 06:10 15.1 58 7.48 6.9 6 9 1029.2 0 17.1 24.3 35.5 92.7 83.7 286.9
08/05 06:00 15.1 58 7.48 6.9 7 17 1029.3 0 17.1 24.4 35.5 92.7 83.7 286.9
08/05 05:50 15.4 57 7.49 6.9 4 7 1029.3 0 17.1 24.3 35.4 92.5 83.5 286.2
08/05 05:40 15.4 57 7.49 6.9 11 13 1029.2 0 17.1 24.3 35.4 92.5 83.5 286.2
08/05 05:30 15.3 57 7.44 6.8 7 13 1029.2 0 17.0 24.2 35.2 92.1 83.0 284.4
08/05 05:20 15.3 57 7.44 6.8 7 13 1029.2 0 17.0 24.2 35.2 92.1 83.0 284.4
08/05 05:10 15.2 57 7.4 6.7 6 6 1029.2 0 17.0 24.2 35.1 91.8 82.6 283.0
08/05 05:00 15.5 56 7.4 6.8 6 15 1029.2 0 16.9 24.1 35.0 91.5 82.2 281.9
08/05 04:50 15.7 56 7.49 6.9 7 11 1029.1 0 17.1 24.2 35.3 92.1 83.2 285.1
08/05 04:40 16 54 7.36 6.9 11 13 1029 0 16.8 23.9 34.6 90.5 81.2 278.4
08/05 04:30 16.1 55 7.54 7.1 9 20 1028.9 0 17.2 24.2 35.3 92.2 83.3 285.8
08/05 04:20 15.9 54 7.31 6.8 7 9 1028.9 0 16.7 23.9 34.5 90.1 80.7 276.5
08/05 04:10 16.3 53 7.35 6.9 11 19 1028.8 0 16.8 23.8 34.5 90.0 80.8 276.9
08/05 04:00 16.2 54 7.45 6.9 7 24 1028.7 0 17.0 24.0 34.9 91.1 82.1 281.5
08/05 03:50 16 54 7.36 6.7 4 7 1028.7 0 16.8 23.9 34.6 90.4 81.2 278.3
08/05 03:40 16.6 53 7.49 7 15 19 1028.7 0 17.1 23.9 34.9 91.1 82.2 281.9
08/05 03:30 16.4 54 7.54 7.1 7 15 1028.7 0 17.2 24.1 35.1 91.8 83.0 284.7
08/05 03:20 16.4 53 7.4 7 7 9 1028.6 0 16.9 23.9 34.6 90.4 81.3 278.6
08/05 03:10 16.4 53 7.4 7 9 15 1028.6 0 16.9 23.9 34.6 90.4 81.3 278.6
08/05 03:00 16.4 54 7.54 7.1 7 19 1028.6 0 17.2 24.1 35.1 91.8 83.0 284.7
08/05 02:50 16.2 55 7.58 7.1 7 11 1028.6 0 17.3 24.2 35.4 92.4 83.7 287.2
08/05 02:40 16.2 55 7.58 7.1 9 13 1028.6 0 17.3 24.2 35.4 92.4 83.7 287.2
08/05 02:30 15.9 56 7.58 7.1 6 11 1028.6 0 17.3 24.3 35.5 92.8 84.0 288.2
08/05 02:20 16 54 7.36 6.9 4 6 1028.6 0 16.8 23.9 34.6 90.4 81.2 278.3
08/05 02:10 16.2 55 7.58 7.1 6 7 1028.6 0 17.3 24.2 35.4 92.4 83.7 287.2
08/05 02:00 16.2 55 7.58 7.2 6 13 1028.5 0 17.3 24.2 35.4 92.4 83.7 287.1
08/05 01:50 16.3 53 7.35 6.9 9 13 1028.4 0 16.8 23.8 34.4 90.0 80.7 276.8
08/05 01:40 16.4 53 7.4 7 9 13 1028.5 0 16.9 23.9 34.6 90.4 81.3 278.6
08/05 01:30 16.5 54 7.58 7.2 9 19 1028.5 0 17.3 24.1 35.2 92.1 83.4 286.1
08/05 01:20 16.3 53 7.35 6.9 7 11 1028.5 0 16.8 23.8 34.5 90.0 80.8 276.8
08/05 01:10 16.5 53 7.44 6.9 7 9 1028.5 0 17.0 23.9 34.7 90.7 81.7 280.0
08/05 01:00 16.6 53 7.49 7 7 19 1028.6 0 17.1 23.9 34.9 91.1 82.2 281.8
08/05 00:50 16.5 53 7.44 6.9 7 11 1028.6 0 17.0 23.9 34.7 90.7 81.7 280.0
08/05 00:40 16.7 52 7.39 6.8 4 6 1028.6 0 16.9 23.8 34.4 89.9 80.8 277.2
08/05 00:30 17 52 7.52 7.1 9 17 1028.5 0 17.1 23.9 34.8 90.9 82.1 281.7
08/05 00:20 17 51 7.38 6.8 6 11 1028.5 0 16.8 23.7 34.3 89.5 80.4 275.7
08/05 00:10 17.3 50 7.37 7 11 15 1028.6 0 16.8 23.6 34.1 89.1 80.0 274.3
08/05 00:00 17.2 51 7.47 7 9 20 1028.5 0 17.0 23.8 34.5 90.2 81.3 278.9
07/05 23:50 17.3 50 7.37 7 7 13 1028.5 0 16.8 23.6 34.1 89.1 80.0 274.2
07/05 23:40 17.3 50 7.37 7 6 7 1028.4 0 16.8 23.6 34.1 89.1 80.0 274.2
07/05 23:30 17.2 51 7.47 7 6 11 1028.4 0 17.0 23.8 34.5 90.2 81.3 278.8
07/05 23:20 17 51 7.38 6.8 4 6 1028.4 0 16.8 23.7 34.3 89.5 80.4 275.7
07/05 23:10 17 51 7.38 6.8 6 7 1028.4 0 16.8 23.7 34.3 89.5 80.4 275.7
07/05 23:00 17.2 50 7.32 6.7 6 15 1028.4 0 16.7 23.5 34.0 88.7 79.5 272.4
07/05 22:50 17.3 49 7.22 6.7 7 15 1028.5 0 16.5 23.4 33.6 87.6 78.2 267.9
07/05 22:40 17.1 50 7.28 6.6 6 7 1028.4 0 16.6 23.5 33.9 88.4 79.1 271.1
07/05 22:30 17.1 51 7.42 6.9 6 9 1028.4 0 16.9 23.7 34.4 89.8 80.8 277.0
07/05 22:20 17.3 49 7.22 6.7 2 4 1028.4 0 16.5 23.4 33.5 87.6 78.2 267.8
07/05 22:10 17.1 50 7.28 6.6 4 6 1028.3 0 16.6 23.5 33.8 88.4 79.1 271.0
07/05 22:00 17.3 49 7.22 6.5 4 9 1028.3 0 16.5 23.3 33.5 87.6 78.2 267.8
07/05 21:50 17 50 7.23 6.5 4 4 1028.2 0 16.5 23.4 33.7 88.0 78.6 269.2
07/05 21:40 17.3 49 7.22 6.5 4 7 1028.2 0 16.5 23.3 33.5 87.6 78.1 267.8
07/05 21:30 17.2 49 7.18 6.4 6 11 1028.1 0 16.4 23.3 33.4 87.3 77.8 266.4
07/05 21:20 16.9 49 7.05 6.1 0 0 1028.1 0 16.2 23.2 33.1 86.3 76.5 261.9
07/05 21:10 18 47 7.22 6.5 11 17 1028.1 0 16.5 23.2 33.2 86.8 77.5 265.5
07/05 21:00 17.1 48 6.99 6 2 4 1028 0 16.0 23.0 32.8 85.5 75.6 258.7
07/05 20:50 17.3 49 7.22 6.5 4 7 1027.8 0 16.5 23.3 33.5 87.5 78.1 267.7
07/05 20:40 17.4 46 6.82 5.9 2 2 1027.8 0 15.6 22.7 32.0 83.5 73.2 250.6
07/05 20:30 17.6 46 6.9 5.9 4 11 1027.8 0 15.8 22.8 32.2 84.1 74.0 253.3
07/05 20:20 17.8 46 6.98 6 4 6 1027.8 0 16.0 22.9 32.4 84.7 74.8 256.0
07/05 20:10 18.1 45 6.95 6 6 7 1027.7 0 15.9 22.7 32.2 84.1 74.1 253.8
07/05 20:00 18 46 7.06 6.2 4 7 1027.7 0 16.1 22.9 32.7 85.2 75.5 258.7
07/05 19:50 17.6 47 7.05 6.1 4 7 1027.7 0 16.1 23.0 32.8 85.5 75.8 259.5
07/05 19:40 17.3 48 7.07 6.2 4 6 1027.8 0 16.2 23.1 33.0 86.1 76.3 261.4
07/05 19:30 17.1 49 7.13 6.3 4 9 1027.7 0 16.3 23.2 33.3 86.9 77.2 264.5
07/05 19:20 17.3 48 7.07 6.2 2 4 1027.7 0 16.2 23.1 33.0 86.1 76.3 261.3
07/05 19:10 17.3 49 7.22 6.5 2 2 1027.6 0 16.5 23.3 33.5 87.5 78.1 267.7
07/05 19:00 16.8 50 7.15 6.3 2 6 1027.5 0 16.4 23.3 33.5 87.4 77.7 266.3
07/05 18:50 17 50 7.23 6.5 4 4 1027.5 0 16.5 23.4 33.7 87.9 78.5 269.1
07/05 18:40 17.7 47 7.09 6.2 4 6 1027.5 0 16.2 23.0 32.9 85.8 76.1 260.8
07/05 18:30 17.1 50 7.28 6.6 0 6 1027.5 0 16.6 23.5 33.8 88.3 79.0 270.9
07/05 18:20 17.8 47 7.13 6.3 0 0 1027.4 0 16.3 23.1 33.0 86.1 76.5 262.2
07/05 18:10 18.4 45 7.08 6.5 0 2 1027.4 0 16.2 22.8 32.6 85.0 75.4 258.2
07/05 18:00 18.9 44 7.13 6.4 0 4 1027.4 0 16.2 22.8 32.5 84.9 75.5 258.7
07/05 17:50 19.9 40 6.87 6.2 2 4 1027.3 0 15.7 22.2 31.2 81.4 71.5 244.9
07/05 17:40 20.2 39 6.82 6.1 7 9 1027.2 0 15.5 22.0 30.9 80.7 70.7 242.0
07/05 17:30 20.7 39 7.02 6.3 4 9 1027.1 0 15.9 22.2 31.4 82.0 72.5 248.5
07/05 17:20 21.1 37 6.82 5.8 6 7 1027 0 15.5 21.8 30.6 79.8 69.9 239.3
07/05 17:10 21.6 36 6.83 5.9 7 11 1027 0 15.5 21.7 30.4 79.4 69.6 238.2
07/05 17:00 21.9 35 6.75 5.8 9 19 1026.9 0 15.3 21.5 30.1 78.4 68.4 234.2
07/05 16:50 22.1 35 6.83 5.9 13 20 1027 0 15.5 21.6 30.3 78.9 69.1 236.8

Last Refresh: 08-May-2026 11:04:27

Bureau of Meteorology